Time,TemperatureF,DewpointF,PressureIn,WindDirection,WindDirectionDegrees,WindSpeedMPH,WindSpeedGustMPH,Humidity,HourlyPrecipIn,Conditions,Clouds,dailyrainin,SolarRadiationWatts/m^2,SoftwareType,DateUTC
2013-08-21 00:01:00,86.0,35.0,-100.00,WSW,247,7.0,17.0,16,0.00,,,0.00,0.000000,,2013-08-21 07:01:00,
2013-08-21 00:11:00,86.0,35.0,-100.00,WSW,247,7.0,17.0,16,0.00,,,0.00,0.000000,,2013-08-21 07:11:00,
2013-08-21 00:21:00,86.0,35.0,-100.00,WSW,247,7.0,17.0,16,0.00,,,0.00,0.000000,,2013-08-21 07:21:00,
2013-08-21 00:53:00,80.0,31.0,-100.00,SSE,159,3.0,7.0,17,0.00,,,0.00,0.000000,,2013-08-21 07:53:00,
2013-08-21 01:03:00,80.0,31.0,-100.00,SSE,159,3.0,7.0,17,0.00,,,0.00,0.000000,,2013-08-21 08:03:00,
2013-08-21 01:12:00,80.0,31.0,-100.00,SSE,159,3.0,7.0,17,0.00,,,0.00,0.000000,,2013-08-21 08:12:00,
2013-08-21 01:22:00,80.0,31.0,-100.00,SSE,159,3.0,7.0,17,0.00,,,0.00,0.000000,,2013-08-21 08:22:00,
2013-08-21 01:52:00,81.0,33.0,-100.00,South,188,0.0,5.0,18,0.00,,,0.00,0.000000,,2013-08-21 08:52:00,
2013-08-21 02:01:00,81.0,33.0,-100.00,South,188,0.0,5.0,18,0.00,,,0.00,0.000000,,2013-08-21 09:01:00,
2013-08-21 02:11:00,81.0,33.0,-100.00,South,188,0.0,5.0,18,0.00,,,0.00,0.000000,,2013-08-21 09:11:00,
2013-08-21 02:22:00,81.0,33.0,-100.00,South,188,0.0,5.0,18,0.00,,,0.00,0.000000,,2013-08-21 09:22:00,
2013-08-21 02:53:00,79.0,33.0,-100.00,SSE,168,3.0,5.0,19,0.00,,,0.00,0.000000,,2013-08-21 09:53:00,
2013-08-21 03:03:00,79.0,33.0,-100.00,SSE,168,3.0,5.0,19,0.00,,,0.00,0.000000,,2013-08-21 10:03:00,
2013-08-21 03:12:00,79.0,33.0,-100.00,SSE,168,3.0,5.0,19,0.00,,,0.00,0.000000,,2013-08-21 10:12:00,
2013-08-21 03:23:00,79.0,33.0,-100.00,SSE,168,3.0,5.0,19,0.00,,,0.00,0.000000,,2013-08-21 10:23:00,
2013-08-21 03:52:00,81.0,35.0,-100.00,WNW,287,4.0,9.0,19,0.00,,,0.00,0.000000,,2013-08-21 10:52:00,
2013-08-21 04:03:00,81.0,35.0,-100.00,WNW,287,4.0,9.0,19,0.00,,,0.00,0.000000,,2013-08-21 11:03:00,
2013-08-21 04:11:00,81.0,35.0,-100.00,WNW,287,4.0,9.0,19,0.00,,,0.00,0.000000,,2013-08-21 11:11:00,
2013-08-21 04:22:00,81.0,35.0,-100.00,WNW,287,4.0,9.0,19,0.00,,,0.00,0.000000,,2013-08-21 11:22:00,
2013-08-21 04:52:00,80.0,35.0,-100.00,SW,227,2.0,10.0,20,0.00,,,0.00,0.000000,,2013-08-21 11:52:00,
2013-08-21 05:01:00,80.0,35.0,-100.00,SW,227,2.0,10.0,20,0.00,,,0.00,0.000000,,2013-08-21 12:01:00,
2013-08-21 05:12:00,80.0,35.0,-100.00,SW,227,2.0,10.0,20,0.00,,,0.00,0.000000,,2013-08-21 12:12:00,
2013-08-21 05:22:00,80.0,35.0,-100.00,SW,227,2.0,10.0,20,0.00,,,0.00,0.000000,,2013-08-21 12:22:00,
2013-08-21 05:52:00,79.0,37.0,-100.00,South,186,3.0,8.0,22,0.00,,,-99.99,0.000000,,2013-08-21 12:52:00,
2013-08-21 06:02:00,79.0,37.0,-100.00,South,186,3.0,8.0,22,0.00,,,-99.99,0.000000,,2013-08-21 13:02:00,
2013-08-21 06:11:00,79.0,37.0,-100.00,South,186,3.0,8.0,22,0.00,,,-99.99,0.000000,,2013-08-21 13:11:00,
2013-08-21 06:21:00,79.0,37.0,-100.00,South,186,3.0,8.0,22,0.00,,,-99.99,0.000000,,2013-08-21 13:21:00,
2013-08-21 06:52:00,79.0,37.0,-100.00,SSE,153,2.0,10.0,22,0.00,,,0.00,1.000000,,2013-08-21 13:52:00,
2013-08-21 07:02:00,79.0,37.0,-100.00,SSE,153,2.0,10.0,22,0.00,,,0.00,1.000000,,2013-08-21 14:02:00,
2013-08-21 07:11:00,79.0,37.0,-100.00,SSE,153,2.0,10.0,22,0.00,,,0.00,1.000000,,2013-08-21 14:11:00,
2013-08-21 07:21:00,79.0,37.0,-100.00,SSE,153,2.0,10.0,22,0.00,,,0.00,1.000000,,2013-08-21 14:21:00,
2013-08-21 07:52:00,81.0,41.0,-100.00,ENE,61,1.0,7.0,24,0.00,,,0.00,92.000000,,2013-08-21 14:52:00,
2013-08-21 08:01:00,81.0,41.0,-100.00,ENE,61,1.0,7.0,24,0.00,,,0.00,92.000000,,2013-08-21 15:01:00,
2013-08-21 08:11:00,81.0,41.0,-100.00,ENE,61,1.0,7.0,24,0.00,,,0.00,92.000000,,2013-08-21 15:11:00,
2013-08-21 08:22:00,81.0,41.0,-100.00,ENE,61,1.0,7.0,24,0.00,,,0.00,92.000000,,2013-08-21 15:22:00,
2013-08-21 08:54:00,80.0,43.0,-100.00,NNE,24,14.0,21.0,27,0.00,,,0.00,344.000000,,2013-08-21 15:54:00,
2013-08-21 09:04:00,80.0,43.0,-100.00,NNE,24,14.0,21.0,27,0.00,,,0.00,344.000000,,2013-08-21 16:04:00,
2013-08-21 09:13:00,80.0,43.0,-100.00,NNE,24,14.0,21.0,27,0.00,,,0.00,344.000000,,2013-08-21 16:13:00,
2013-08-21 09:24:00,80.0,43.0,-100.00,NNE,24,14.0,21.0,27,0.00,,,0.00,344.000000,,2013-08-21 16:24:00,
2013-08-21 09:53:00,84.0,42.0,-100.00,NE,45,14.0,21.0,23,0.00,,,0.00,613.000000,,2013-08-21 16:53:00,
2013-08-21 10:03:00,84.0,42.0,-100.00,NE,45,14.0,21.0,23,0.00,,,0.00,613.000000,,2013-08-21 17:03:00,
2013-08-21 10:13:00,84.0,42.0,-100.00,NE,45,14.0,21.0,23,0.00,,,0.00,613.000000,,2013-08-21 17:13:00,
2013-08-21 10:23:00,84.0,42.0,-100.00,NE,45,14.0,21.0,23,0.00,,,0.00,613.000000,,2013-08-21 17:23:00,
2013-08-21 10:53:00,92.0,38.0,-100.00,South,180,2.0,16.0,15,0.00,,,0.00,788.000000,,2013-08-21 17:53:00,
2013-08-21 11:02:00,92.0,38.0,-100.00,South,180,2.0,16.0,15,0.00,,,0.00,788.000000,,2013-08-21 18:02:00,
2013-08-21 11:12:00,92.0,38.0,-100.00,South,180,2.0,16.0,15,0.00,,,0.00,788.000000,,2013-08-21 18:12:00,
2013-08-21 11:22:00,92.0,38.0,-100.00,South,180,2.0,16.0,15,0.00,,,0.00,788.000000,,2013-08-21 18:22:00,
2013-08-21 11:52:00,93.0,33.0,-100.00,SE,144,4.0,13.0,12,0.00,,,0.00,958.000000,,2013-08-21 18:52:00,
2013-08-21 12:01:00,93.0,33.0,-100.00,SE,144,4.0,13.0,12,0.00,,,0.00,958.000000,,2013-08-21 19:01:00,
2013-08-21 12:11:00,93.0,33.0,-100.00,SE,144,4.0,13.0,12,0.00,,,0.00,958.000000,,2013-08-21 19:11:00,
2013-08-21 12:22:00,93.0,33.0,-100.00,SE,144,4.0,13.0,12,0.00,,,0.00,958.000000,,2013-08-21 19:22:00,
2013-08-21 12:52:00,93.0,35.0,-100.00,South,173,11.0,23.0,13,0.00,,,0.00,1134.000000,,2013-08-21 19:52:00,
2013-08-21 13:02:00,93.0,35.0,-100.00,South,173,11.0,23.0,13,0.00,,,0.00,1134.000000,,2013-08-21 20:02:00,
2013-08-21 13:11:00,93.0,35.0,-100.00,South,173,11.0,23.0,13,0.00,,,0.00,1134.000000,,2013-08-21 20:11:00,
2013-08-21 13:22:00,93.0,35.0,-100.00,South,173,11.0,23.0,13,0.00,,,0.00,1134.000000,,2013-08-21 20:22:00,
2013-08-21 13:52:00,94.0,36.0,-100.00,SSE,168,20.0,32.0,13,0.00,,,0.00,1191.000000,,2013-08-21 20:52:00,
2013-08-21 14:02:00,94.0,36.0,-100.00,SSE,168,20.0,32.0,13,0.00,,,0.00,1191.000000,,2013-08-21 21:02:00,
2013-08-21 14:12:00,94.0,36.0,-100.00,SSE,168,20.0,32.0,13,0.00,,,0.00,1191.000000,,2013-08-21 21:12:00,
2013-08-21 14:21:00,94.0,36.0,-100.00,SSE,168,20.0,32.0,13,0.00,,,0.00,1191.000000,,2013-08-21 21:21:00,
2013-08-21 14:54:00,95.0,36.0,-100.00,South,170,20.0,30.0,13,0.00,,,0.00,1165.000000,,2013-08-21 21:54:00,
2013-08-21 15:04:00,95.0,36.0,-100.00,South,170,20.0,30.0,13,0.00,,,0.00,1165.000000,,2013-08-21 22:04:00,
2013-08-21 15:14:00,95.0,36.0,-100.00,South,170,20.0,30.0,13,0.00,,,0.00,1165.000000,,2013-08-21 22:14:00,
2013-08-21 15:24:00,95.0,36.0,-100.00,South,170,20.0,30.0,13,0.00,,,0.00,1165.000000,,2013-08-21 22:24:00,
2013-08-21 15:53:00,93.0,35.0,-100.00,South,169,23.0,34.0,13,0.00,,,0.00,1056.000000,,2013-08-21 22:53:00,
2013-08-21 16:03:00,93.0,35.0,-100.00,South,169,23.0,34.0,13,0.00,,,0.00,1056.000000,,2013-08-21 23:03:00,
2013-08-21 16:12:00,93.0,35.0,-100.00,South,169,23.0,34.0,13,0.00,,,0.00,1056.000000,,2013-08-21 23:12:00,
2013-08-21 16:22:00,93.0,35.0,-100.00,South,169,23.0,34.0,13,0.00,,,0.00,1056.000000,,2013-08-21 23:22:00,
2013-08-21 16:53:00,92.0,34.0,-100.00,SSE,168,23.0,34.0,13,0.00,,,0.00,795.000000,,2013-08-21 23:53:00,
2013-08-21 17:02:00,92.0,34.0,-100.00,SSE,168,23.0,34.0,13,0.00,,,0.00,795.000000,,2013-08-22 00:02:00,
2013-08-21 17:12:00,92.0,34.0,-100.00,SSE,168,23.0,34.0,13,0.00,,,0.00,795.000000,,2013-08-22 00:12:00,
2013-08-21 17:21:00,92.0,34.0,-100.00,SSE,168,23.0,34.0,13,0.00,,,0.00,795.000000,,2013-08-22 00:21:00,
2013-08-21 17:52:00,93.0,33.0,-100.00,SSE,168,23.0,35.0,12,0.00,,,0.00,557.000000,,2013-08-22 00:52:00,
2013-08-21 18:02:00,93.0,33.0,-100.00,SSE,168,23.0,35.0,12,0.00,,,0.00,557.000000,,2013-08-22 01:02:00,
2013-08-21 18:11:00,93.0,33.0,-100.00,SSE,168,23.0,35.0,12,0.00,,,0.00,557.000000,,2013-08-22 01:11:00,
2013-08-21 18:22:00,93.0,33.0,-100.00,SSE,168,23.0,35.0,12,0.00,,,0.00,557.000000,,2013-08-22 01:22:00,
2013-08-21 18:52:00,88.0,35.0,-100.00,SSE,168,24.0,37.0,15,0.00,,,0.00,132.000000,,2013-08-22 01:52:00,
2013-08-21 19:03:00,88.0,35.0,-100.00,SSE,168,24.0,37.0,15,0.00,,,0.00,132.000000,,2013-08-22 02:03:00,
2013-08-21 19:12:00,88.0,35.0,-100.00,SSE,168,24.0,37.0,15,0.00,,,0.00,132.000000,,2013-08-22 02:12:00,
2013-08-21 19:22:00,88.0,35.0,-100.00,SSE,168,24.0,37.0,15,0.00,,,0.00,132.000000,,2013-08-22 02:22:00,
2013-08-21 20:12:00,88.0,36.0,-100.00,South,175,18.0,34.0,16,0.00,,,0.00,24.000000,,2013-08-22 03:12:00,
2013-08-21 20:22:00,88.0,36.0,-100.00,South,175,18.0,34.0,16,0.00,,,0.00,24.000000,,2013-08-22 03:22:00,
2013-08-21 20:54:00,85.0,37.0,-100.00,South,186,10.0,27.0,18,0.00,,,0.00,1.000000,,2013-08-22 03:54:00,
2013-08-21 21:04:00,85.0,37.0,-100.00,South,186,10.0,27.0,18,0.00,,,0.00,1.000000,,2013-08-22 04:04:00,
2013-08-21 21:14:00,85.0,37.0,-100.00,South,186,10.0,27.0,18,0.00,,,0.00,1.000000,,2013-08-22 04:14:00,
2013-08-21 21:23:00,85.0,37.0,-100.00,South,186,10.0,27.0,18,0.00,,,0.00,1.000000,,2013-08-22 04:23:00,
2013-08-21 21:54:00,84.0,37.0,-100.00,SW,231,14.0,18.0,19,0.00,,,0.00,0.000000,,2013-08-22 04:54:00,
2013-08-21 22:03:00,84.0,37.0,-100.00,SW,231,14.0,18.0,19,0.00,,,0.00,0.000000,,2013-08-22 05:03:00,
2013-08-21 22:12:00,84.0,37.0,-100.00,SW,231,14.0,18.0,19,0.00,,,0.00,0.000000,,2013-08-22 05:12:00,
2013-08-21 22:22:00,84.0,37.0,-100.00,SW,231,14.0,18.0,19,0.00,,,0.00,0.000000,,2013-08-22 05:22:00,
2013-08-21 22:52:00,85.0,38.0,-100.00,SW,215,15.0,21.0,19,0.00,,,0.00,0.000000,,2013-08-22 05:52:00,
2013-08-21 23:02:00,85.0,38.0,-100.00,SW,215,15.0,21.0,19,0.00,,,0.00,0.000000,,2013-08-22 06:02:00,
2013-08-21 23:12:00,85.0,38.0,-100.00,SW,215,15.0,21.0,19,0.00,,,0.00,0.000000,,2013-08-22 06:12:00,
2013-08-21 23:22:00,85.0,38.0,-100.00,SW,215,15.0,21.0,19,0.00,,,0.00,0.000000,,2013-08-22 06:22:00,
2013-08-21 23:52:00,83.0,39.0,-100.00,SW,225,15.0,32.0,21,0.00,,,0.00,0.000000,,2013-08-22 06:52:00,